Hartney, Canada
Current Conditions -  °F | °C
As of 12:00 AM on Sunday 26 Oct 2014 (Local Time) from CYBR Reporting Station
Broken Clouds Broken Clouds  
Wind Chill: 32°   Ceiling: 25000
Heat Index: 32°   Visibility: 15mi
Dew Point: 23°   Wind: 3mph
Humidity: 69%   Direction: 190°S
Pressure: 29.95"   Gusts: NA
Location:  49.48°N, 100.52°W
Report Text: CYBR 260500Z 19003KT 140V210 15SM BKN250 00/M05 A2995 RMK CI6 SLP158
Loading
Personal Weather Stations






























Interactive Weather Map
Tropical Storm Tracking
New forecast layout! Learn more

10-Day Weather Forecast

Advertisements
Track Severe Weather on mobile